Главная страница
METAR-TAF:

METAR-TAF

Аэропорты :

Стригино

Нижний Новгород, Россия

широта: 56-19-48N, долгота: 044-00E, высота над уровнем моря: 78 м

Текущие метеонаблюдения

Эта сводка был подготовлена 27 минут назад, в 03:00 UTC
Ветер 8 Узел от северо-северо-восточный
Температура -3°C
Влажность 86%
Давление 1026 hPa
Видимость 10 км и более
Сплошная облачность на высоте 1000 фута

METAR: UWGG 140300Z 03004MPS 9999 OVC010 M03/M05 Q1026 R36R/450242 NOSIG

Время: 06:27 (03:27 UTC)

Прогноз

Эта сводка был подготовлена 1 час и 33 минут назад, в 01:54 UTC
Прогноз действительный с 14-го 03 UTC до 15-го 03 UTC
Ветер 8 Узел от северо-восточный
Видимость: 6000 м
Рассеянная облачность на высоте 1100 фута
временами
С 14-го 03 UTC до 14-го 21 UTC
Ветер 14 Узел от северо-восточный с порывами до 27 Узел
Видимость: 4000 м
небольшой снег

TAF: UWGG 140154Z 1403/1503 04004MPS 6000 BKN011 TXM03/1403Z TNM08/1501Z TEMPO 1403/1421 04007G14MPS 4000 -SN

Метеонаблюдения и прогнозы для более 4000 аэропортов (сводки METAR и TAF).

Имеющиеся станции представлены на карте желтыми и красными точками.

Чтобы увидеть название станции, наведите на нее мышь.

Затем щелкните, чтобы увидеть метеонаблюдения и метеопрогнозы.

Управление картой: чтобы увеличить масштаб, щелкните зеленые кнопки с черным крестиком; чтобы уменьшить масштаб, щелкните зеленую кнопку с тире; для просмотра соседних карт щелкайте зеленые стрелки.


METAR-TAF: